Página principal
METAR-TAF:

METAR-TAF

Aeroportos :

Astracã, Rússia

latitude: 46-17N, longitude: 048-00-23E, altura: 0 m

Observação actual do tempo

O boletim foi feito há 35 minutos, às 00:00 UTC
Vento 2 kt de oes-sudoeste
Temperatura 11°C
Humidade 94%
Pressão 1024 hPa
Visibilidade: 0100 m
nevoeiro

METAR: URWA 180000Z 25001MPS 0150 0100NW R27/0400N FG VV002 11/10 Q1024 R27/010070 NOSIG RMK QBB060 OBST OBSC QFE769/1026

Hora: 03:35 (00:35 UTC)

Previsão

O boletim foi feito há 1 hora e 35 minutos, às 23:00 UTC
Previsão válida de 18 às 00 UTC a 18 às 09 UTC
Vento 6 kt de su-sudoeste
Visibilidade: 0300 m
Nuvens fragmentadasa uma altura de 200 ft
nevoeiro
Temporariamente
de 18 às 00 UTC a 18 às 06 UTC
Visibilidade: 3100 m
Nuvens fragmentadasa uma altura de 500 ft
neblina
Tornando-se
de 18 às 06 UTC a 18 às 07 UTC
Visibilidade 10 km ou mais
Nuvens fragmentadasa uma altura de 1100 ft

TAF: URWA 172300Z 1800/1809 20003MPS 0300 FG BKN002 TEMPO 1800/1806 3100 BR BKN005 BECMG 1806/1807 9999 NSW BKN011

Observações e previsões do tempo de mais de 4000 aeroportos (mensagens METAR e TAF).

As estações disponíveis são os pontos amarelos e vermelhos sobre o mapa.

Mova o rato sobre o mapa para ver o nome da estação.

Depois clique no ponto para visualizar as observações e previsões meteorológicas.

Para alterar o mapa : clique nos botões verdes com uma cruz preta para aumentar o zoom; no botão verde com uma pitada de zoom; ou nas setas verdes para mapas adjacentes.


METAR-TAF: